createdAt,value
2022-08-17T00:01:52.664Z,14.60
2022-08-17T00:04:23.518Z,11.90
2022-08-17T00:06:53.301Z,10.75
2022-08-17T00:09:21.256Z,11.55
2022-08-17T00:12:40.944Z,12.25
2022-08-17T00:14:38.417Z,11.40
2022-08-17T00:17:06.509Z,13.93
2022-08-17T00:19:35.838Z,11.20
2022-08-17T00:22:31.783Z,12.30
2022-08-17T00:24:54.964Z,11.25
2022-08-17T00:27:22.884Z,12.55
2022-08-17T00:29:51.171Z,12.57
2022-08-17T00:33:14.005Z,10.68
2022-08-17T00:35:11.274Z,11.38
2022-08-17T00:37:39.337Z,10.73
2022-08-17T00:40:08.613Z,10.85
2022-08-17T00:42:36.949Z,10.02
2022-08-17T00:45:08.715Z,10.43
2022-08-17T00:47:36.748Z,10.57
2022-08-17T00:50:05.640Z,11.10
2022-08-17T00:52:39.828Z,10.35
2022-08-17T00:55:09.730Z,10.50
2022-08-17T00:57:41.909Z,11.10
2022-08-17T01:00:15.665Z,11.95
2022-08-17T01:02:46.485Z,10.27
2022-08-17T01:05:18.958Z,10.68
2022-08-17T01:07:50.882Z,11.77
2022-08-17T01:10:59.497Z,9.93
2022-08-17T01:13:11.688Z,10.00
2022-08-17T01:15:46.192Z,10.43
2022-08-17T01:18:15.988Z,10.70
2022-08-17T01:20:49.075Z,9.98
2022-08-17T01:23:21.353Z,11.27
2022-08-17T01:25:50.875Z,11.23
2022-08-17T01:28:52.568Z,10.52
2022-08-17T01:31:09.179Z,10.93
2022-08-17T01:33:37.982Z,10.65
2022-08-17T01:36:07.157Z,11.55
2022-08-17T01:38:37.008Z,10.48
2022-08-17T01:41:09.532Z,10.25
2022-08-17T01:43:43.163Z,10.13
2022-08-17T01:46:16.810Z,10.80
2022-08-17T01:48:47.473Z,9.98
2022-08-17T01:51:16.702Z,10.25
2022-08-17T01:53:49.416Z,9.93
2022-08-17T01:56:22.224Z,9.88
2022-08-17T01:58:50.465Z,11.77
2022-08-17T02:01:20.694Z,10.57
2022-08-17T02:03:56.097Z,11.15
2022-08-17T02:06:29.064Z,10.63
2022-08-17T02:09:02.978Z,11.20
2022-08-17T02:11:33.473Z,11.05
2022-08-17T02:14:04.086Z,10.93
2022-08-17T02:16:36.856Z,10.25
2022-08-17T02:19:07.610Z,10.45
2022-08-17T02:21:35.924Z,10.07
2022-08-17T02:24:06.496Z,11.23
2022-08-17T02:26:34.682Z,10.23
2022-08-17T02:29:04.100Z,9.85
2022-08-17T02:31:32.943Z,9.50
2022-08-17T02:34:03.591Z,10.95
2022-08-17T02:36:32.380Z,11.50
2022-08-17T02:39:01.722Z,11.65
2022-08-17T02:41:31.243Z,12.30
2022-08-17T02:43:59.279Z,10.48
2022-08-17T02:46:27.407Z,10.15
2022-08-17T02:48:55.734Z,11.50
2022-08-17T02:51:23.771Z,10.05
2022-08-17T02:53:51.732Z,9.80
2022-08-17T02:56:19.634Z,10.15
2022-08-17T02:58:49.199Z,10.23
2022-08-17T03:01:17.495Z,9.73
2022-08-17T03:03:45.493Z,10.00
2022-08-17T03:06:13.454Z,10.05
2022-08-17T03:08:41.396Z,9.57
2022-08-17T03:11:09.401Z,13.40
2022-08-17T03:13:37.398Z,10.98
2022-08-17T03:16:07.296Z,11.88
2022-08-17T03:18:35.289Z,9.75
2022-08-17T03:21:04.614Z,9.52
2022-08-17T03:23:33.739Z,11.07
2022-08-17T03:26:02.182Z,11.05
2022-08-17T03:28:30.275Z,9.93
2022-08-17T03:30:58.468Z,9.65
2022-08-17T03:33:27.842Z,11.30
2022-08-17T03:35:55.842Z,9.77
2022-08-17T03:38:24.238Z,10.63
2022-08-17T03:40:56.997Z,9.93
2022-08-17T03:43:29.323Z,9.35
2022-08-17T03:46:27.866Z,10.80
2022-08-17T03:49:17.228Z,10.15
2022-08-17T03:52:02.491Z,10.38
2022-08-17T03:54:47.660Z,8.95
2022-08-17T03:57:16.354Z,9.68
2022-08-17T03:59:44.924Z,9.95
2022-08-17T04:02:18.684Z,11.50
2022-08-17T04:04:50.756Z,10.82
2022-08-17T04:07:19.180Z,9.35
2022-08-17T04:09:47.188Z,9.52
2022-08-17T04:12:16.468Z,9.98
2022-08-17T04:14:52.255Z,11.02
2022-08-17T04:17:24.270Z,12.05
2022-08-17T04:19:54.222Z,9.23
2022-08-17T04:22:30.712Z,11.30
2022-08-17T04:25:06.601Z,10.00
2022-08-17T04:27:34.645Z,10.07
2022-08-17T04:30:02.935Z,9.85
2022-08-17T04:33:00.852Z,9.60
2022-08-17T04:35:22.966Z,9.07
2022-08-17T04:37:51.062Z,10.40
2022-08-17T04:40:38.550Z,10.20
2022-08-17T04:43:10.974Z,10.55
2022-08-17T04:45:55.373Z,11.02
2022-08-17T04:48:34.807Z,10.00
2022-08-17T04:51:10.434Z,10.57
2022-08-17T04:53:40.083Z,14.35
2022-08-17T04:56:16.226Z,14.88
2022-08-17T04:58:48.524Z,17.40
2022-08-17T05:01:23.562Z,16.50
2022-08-17T05:03:52.347Z,17.20
2022-08-17T05:06:21.835Z,17.40
2022-08-17T05:08:49.999Z,16.25
2022-08-17T05:11:18.009Z,18.02
2022-08-17T05:13:45.954Z,17.92
2022-08-17T05:16:13.913Z,16.75
2022-08-17T05:18:41.816Z,21.20
2022-08-17T05:21:10.049Z,20.63
2022-08-17T05:23:42.616Z,17.63
2022-08-17T05:26:25.444Z,18.50
2022-08-17T05:28:55.473Z,19.08
2022-08-17T05:31:25.853Z,17.42
2022-08-17T05:33:54.373Z,18.17
2022-08-17T05:36:37.844Z,17.77
2022-08-17T05:39:16.414Z,19.05
2022-08-17T05:41:47.039Z,18.95
2022-08-17T05:44:15.058Z,17.92
2022-08-17T05:46:48.629Z,17.80
2022-08-17T05:49:20.167Z,16.08
2022-08-17T05:52:10.211Z,18.90
2022-08-17T05:54:58.529Z,15.55
2022-08-17T05:57:53.608Z,16.17
2022-08-17T06:00:29.987Z,16.60
2022-08-17T06:03:21.215Z,20.60
2022-08-17T06:06:09.655Z,18.42
2022-08-17T06:08:51.505Z,16.52
2022-08-17T06:11:30.780Z,18.70
2022-08-17T06:14:17.410Z,16.23
2022-08-17T06:16:50.208Z,17.17
2022-08-17T06:19:23.644Z,17.42
2022-08-17T06:21:54.702Z,15.13
2022-08-17T06:24:35.272Z,15.13
2022-08-17T06:27:13.670Z,12.90
2022-08-17T06:29:49.157Z,11.52
2022-08-17T06:32:17.486Z,11.05
2022-08-17T06:34:47.085Z,11.20
2022-08-17T06:37:28.901Z,12.27
2022-08-17T06:40:05.961Z,14.40
2022-08-17T06:42:54.861Z,12.95
2022-08-17T06:45:37.853Z,13.75
2022-08-17T06:48:12.449Z,11.27
2022-08-17T06:50:45.003Z,15.57
2022-08-17T06:53:20.921Z,12.48
2022-08-17T06:55:58.235Z,15.45
2022-08-17T06:58:31.285Z,15.65
2022-08-17T07:01:05.208Z,18.58
2022-08-17T07:03:38.026Z,13.65
2022-08-17T07:06:09.653Z,17.92
2022-08-17T07:08:50.475Z,13.80
2022-08-17T07:11:21.834Z,13.73
2022-08-17T07:14:00.141Z,14.43
2022-08-17T07:16:35.104Z,14.75
2022-08-17T07:19:04.297Z,14.80
2022-08-17T07:21:42.356Z,13.07
2022-08-17T07:24:26.143Z,18.20
2022-08-17T07:27:16.224Z,14.38
2022-08-17T07:29:53.636Z,19.08
2022-08-17T07:32:26.695Z,13.98
2022-08-17T07:35:15.270Z,13.63
2022-08-17T07:37:49.124Z,14.70
2022-08-17T07:40:23.937Z,16.73
2022-08-17T07:43:09.273Z,13.45
2022-08-17T07:46:16.521Z,14.57
2022-08-17T07:48:49.630Z,12.38
2022-08-17T07:51:29.711Z,15.05
2022-08-17T07:54:13.476Z,11.13
2022-08-17T07:56:46.068Z,16.48
2022-08-17T07:59:18.102Z,12.68
2022-08-17T08:02:08.059Z,13.35
2022-08-17T08:07:38.455Z,12.70
2022-08-17T08:10:11.148Z,11.80
2022-08-17T08:12:41.613Z,13.95
2022-08-17T08:15:17.820Z,14.57
2022-08-17T08:17:53.104Z,13.30
2022-08-17T08:20:52.120Z,12.07
2022-08-17T08:23:33.610Z,13.90
2022-08-17T08:26:18.630Z,13.55
2022-08-17T08:28:54.598Z,11.80
2022-08-17T08:31:31.536Z,14.15
2022-08-17T08:34:53.227Z,13.23
2022-08-17T08:37:18.037Z,14.07
2022-08-17T08:40:03.536Z,12.65
2022-08-17T08:42:43.309Z,17.00
2022-08-17T08:45:18.010Z,15.70
2022-08-17T08:48:05.888Z,12.55
2022-08-17T08:50:49.188Z,12.15
2022-08-17T08:53:28.651Z,14.45
2022-08-17T08:56:03.917Z,13.77
2022-08-17T08:58:42.005Z,13.57
2022-08-17T09:01:18.573Z,12.88
2022-08-17T09:04:24.034Z,11.48
2022-08-17T09:07:09.775Z,10.95
2022-08-17T09:09:50.590Z,14.02
2022-08-17T09:12:26.921Z,13.98
2022-08-17T09:15:02.541Z,12.75
2022-08-17T09:17:39.395Z,13.65
2022-08-17T09:20:28.075Z,12.48
2022-08-17T09:23:03.662Z,13.05
2022-08-17T09:25:36.236Z,13.60
2022-08-17T09:28:08.112Z,12.20
2022-08-17T09:30:42.292Z,12.77
2022-08-17T09:33:12.821Z,14.00
2022-08-17T09:35:46.559Z,12.95
2022-08-17T09:38:28.125Z,11.40
2022-08-17T09:41:08.366Z,12.13
2022-08-17T09:43:59.684Z,14.23
2022-08-17T09:46:37.478Z,14.40
2022-08-17T09:49:11.607Z,11.50
2022-08-17T09:51:43.815Z,10.75
2022-08-17T09:54:40.742Z,9.88
2022-08-17T09:57:32.360Z,13.35
2022-08-17T10:00:23.781Z,11.73
2022-08-17T10:03:16.269Z,11.85
2022-08-17T10:05:51.325Z,11.35
2022-08-17T10:08:37.356Z,11.68
2022-08-17T10:11:20.181Z,11.38
2022-08-17T10:13:54.671Z,11.57
2022-08-17T10:16:37.354Z,9.70
2022-08-17T10:19:14.743Z,10.60
2022-08-17T10:22:32.730Z,11.52
2022-08-17T10:25:21.650Z,10.20
2022-08-17T10:27:58.640Z,11.30
2022-08-17T10:30:29.536Z,12.02
2022-08-17T10:33:00.909Z,10.35
2022-08-17T10:35:37.770Z,11.40
2022-08-17T10:38:38.136Z,11.88
2022-08-17T10:41:20.711Z,12.07
2022-08-17T10:44:37.031Z,11.40
2022-08-17T10:47:07.407Z,10.07
2022-08-17T10:49:36.618Z,11.57
2022-08-17T10:52:30.497Z,13.60
2022-08-17T10:55:13.871Z,10.93
2022-08-17T10:57:45.925Z,12.48
2022-08-17T11:03:01.151Z,11.25
2022-08-17T11:05:54.067Z,9.88
2022-08-17T11:08:39.293Z,10.43
2022-08-17T11:11:25.869Z,10.25
2022-08-17T11:14:08.918Z,11.15
2022-08-17T11:16:49.776Z,12.10
2022-08-17T11:19:41.953Z,9.95
2022-08-17T11:22:44.220Z,10.75
2022-08-17T11:25:16.961Z,9.45
2022-08-17T11:27:49.138Z,10.65
2022-08-17T11:30:48.673Z,10.30
2022-08-17T11:33:52.834Z,9.40
2022-08-17T11:36:38.554Z,11.07
2022-08-17T11:39:32.228Z,11.48
2022-08-17T11:42:06.544Z,10.32
2022-08-17T11:44:52.327Z,10.90
2022-08-17T11:48:02.482Z,9.27
2022-08-17T11:51:06.183Z,10.02
2022-08-17T11:54:30.553Z,9.82
2022-08-17T11:56:50.288Z,13.02
2022-08-17T11:59:55.331Z,9.55
2022-08-17T12:02:35.791Z,11.82
2022-08-17T12:05:27.455Z,10.85
2022-08-17T12:08:07.191Z,9.82
2022-08-17T12:10:41.101Z,10.05
2022-08-17T12:13:16.852Z,10.23
2022-08-17T12:15:49.693Z,10.60
2022-08-17T12:18:23.294Z,11.13
2022-08-17T12:21:08.349Z,9.98
2022-08-17T12:23:44.281Z,11.40
2022-08-17T12:26:22.091Z,10.15
2022-08-17T12:28:52.844Z,12.40
2022-08-17T12:31:24.283Z,12.70
2022-08-17T12:33:53.061Z,11.00
2022-08-17T12:36:25.790Z,10.63
2022-08-17T12:38:59.512Z,18.13
2022-08-17T12:41:47.171Z,17.20
2022-08-17T12:44:18.244Z,12.02
2022-08-17T12:46:50.491Z,12.27
2022-08-17T12:49:25.259Z,10.75
2022-08-17T12:52:03.101Z,12.27
2022-08-17T12:54:39.555Z,12.65
2022-08-17T12:57:15.918Z,12.52
2022-08-17T12:59:48.492Z,11.57
2022-08-17T13:02:28.361Z,13.88
2022-08-17T13:04:58.258Z,12.48
2022-08-17T13:07:32.706Z,14.40
2022-08-17T13:10:00.853Z,10.70
2022-08-17T13:12:33.128Z,9.85
2022-08-17T13:15:01.680Z,14.63
2022-08-17T13:17:34.703Z,13.48
2022-08-17T13:20:05.981Z,15.60
2022-08-17T13:22:34.107Z,15.02
2022-08-17T13:25:07.390Z,11.85
2022-08-17T13:27:38.332Z,14.35
2022-08-17T13:30:12.784Z,13.80
2022-08-17T13:32:45.015Z,15.43
2022-08-17T13:35:40.358Z,12.50
2022-08-17T13:38:12.387Z,13.27
2022-08-17T13:40:53.250Z,14.45
2022-08-17T13:43:45.615Z,12.43
2022-08-17T13:46:26.584Z,14.38
2022-08-17T13:49:00.825Z,13.73
2022-08-17T13:51:33.596Z,16.42
2022-08-17T13:54:20.113Z,12.90
2022-08-17T13:56:55.545Z,13.88
2022-08-17T13:59:53.106Z,17.10
2022-08-17T14:02:27.513Z,16.48
2022-08-17T14:04:58.451Z,14.93
2022-08-17T14:07:35.793Z,12.85
2022-08-17T14:10:08.718Z,12.18
2022-08-17T14:12:40.833Z,11.75
2022-08-17T14:15:12.879Z,12.23
2022-08-17T14:20:11.797Z,14.52
2022-08-17T14:22:43.811Z,12.88
2022-08-17T14:27:51.763Z,12.93
2022-08-17T14:30:25.482Z,14.85
2022-08-17T14:32:55.098Z,12.38
2022-08-17T14:35:25.031Z,13.15
2022-08-17T14:37:53.902Z,19.95
2022-08-17T14:40:24.826Z,14.02
2022-08-17T14:42:55.249Z,13.68
2022-08-17T14:45:29.894Z,11.15
2022-08-17T14:48:04.178Z,20.38
2022-08-17T14:50:35.421Z,14.25
2022-08-17T14:53:05.194Z,16.52
2022-08-17T14:55:33.568Z,17.45
2022-08-17T14:58:01.481Z,11.10
2022-08-17T15:00:31.448Z,13.32
2022-08-17T15:03:01.320Z,16.40
2022-08-17T15:05:31.887Z,19.08
2022-08-17T15:08:00.970Z,16.77
2022-08-17T15:10:29.484Z,17.63
2022-08-17T15:12:58.075Z,16.77
2022-08-17T15:15:26.541Z,15.23
2022-08-17T15:17:56.099Z,19.02
2022-08-17T15:20:28.615Z,13.57
2022-08-17T15:22:58.950Z,13.10
2022-08-17T15:25:29.324Z,14.90
2022-08-17T15:27:58.170Z,17.40
2022-08-17T15:30:27.087Z,15.25
2022-08-17T15:32:57.966Z,15.30
2022-08-17T15:35:29.442Z,17.35
2022-08-17T15:38:03.511Z,14.60
2022-08-17T15:40:36.577Z,13.65
2022-08-17T15:43:06.949Z,17.48
2022-08-17T15:45:35.355Z,12.98
2022-08-17T15:48:05.177Z,12.60
2022-08-17T15:50:33.218Z,12.85
2022-08-17T15:53:03.514Z,12.45
2022-08-17T15:55:32.801Z,13.98
2022-08-17T15:58:01.678Z,15.07
2022-08-17T16:00:30.462Z,16.48
2022-08-17T16:03:44.224Z,12.00
2022-08-17T16:05:52.081Z,12.30
2022-08-17T16:08:21.359Z,12.73
2022-08-17T16:10:49.899Z,12.60
2022-08-17T16:13:18.705Z,14.98
2022-08-17T16:15:56.754Z,12.55
2022-08-17T16:18:31.073Z,10.65
2022-08-17T16:21:19.674Z,13.68
2022-08-17T16:23:49.163Z,11.43
2022-08-17T16:26:18.061Z,11.93
2022-08-17T16:28:46.106Z,12.35
2022-08-17T16:31:14.363Z,10.95
2022-08-17T16:34:15.674Z,12.30
2022-08-17T16:36:32.709Z,12.63
2022-08-17T16:39:01.463Z,14.82
2022-08-17T16:41:44.984Z,19.02
2022-08-17T16:44:15.202Z,19.45
2022-08-17T16:46:45.653Z,20.30
2022-08-17T16:49:35.168Z,21.30
2022-08-17T16:52:07.492Z,22.73
2022-08-17T16:54:38.039Z,23.05
2022-08-17T16:57:06.402Z,21.60
2022-08-17T16:59:41.978Z,21.08
2022-08-17T17:02:14.297Z,23.15
2022-08-17T17:04:51.768Z,23.63
2022-08-17T17:07:41.661Z,23.33
2022-08-17T17:10:13.448Z,23.02
2022-08-17T17:13:00.910Z,22.77
2022-08-17T17:15:41.494Z,26.92
2022-08-17T17:18:14.770Z,23.15
2022-08-17T17:20:50.684Z,26.83
2022-08-17T17:23:33.337Z,24.98
2022-08-17T17:26:11.052Z,22.77
2022-08-17T17:28:48.952Z,23.25
2022-08-17T17:31:19.382Z,25.75
2022-08-17T17:33:50.874Z,26.67
2022-08-17T17:36:27.205Z,24.92
2022-08-17T17:39:00.859Z,24.42
2022-08-17T17:41:35.414Z,25.00
2022-08-17T17:44:08.445Z,24.90
2022-08-17T17:46:40.909Z,22.67
2022-08-17T17:49:10.594Z,23.60
2022-08-17T17:52:07.657Z,23.58
2022-08-17T17:54:50.843Z,22.38
2022-08-17T17:57:27.216Z,23.77
2022-08-17T18:00:04.766Z,21.92
2022-08-17T18:02:51.319Z,21.73
2022-08-17T18:05:40.478Z,25.40
2022-08-17T18:08:32.113Z,20.83
2022-08-17T18:11:07.844Z,18.85
2022-08-17T18:13:53.499Z,18.58
2022-08-17T18:16:22.621Z,18.58
2022-08-17T18:18:52.690Z,17.02
2022-08-17T18:21:22.879Z,17.08
2022-08-17T18:23:56.829Z,17.52
2022-08-17T18:26:45.465Z,15.32
2022-08-17T18:29:31.302Z,16.65
2022-08-17T18:32:28.140Z,17.27
2022-08-17T18:34:59.579Z,18.85
2022-08-17T18:37:35.398Z,18.65
2022-08-17T18:40:27.130Z,19.58
2022-08-17T18:43:09.524Z,20.80
2022-08-17T18:45:42.128Z,19.95
2022-08-17T18:48:22.056Z,21.02
2022-08-17T18:50:52.238Z,20.13
2022-08-17T18:53:33.422Z,21.17
2022-08-17T18:56:27.267Z,22.70
2022-08-17T18:59:05.596Z,21.48
2022-08-17T19:02:00.817Z,23.27
2022-08-17T19:04:36.771Z,22.50
2022-08-17T19:07:11.821Z,21.27
2022-08-17T19:09:47.022Z,21.23
2022-08-17T19:12:27.544Z,22.48
2022-08-17T19:14:57.928Z,21.08
2022-08-17T19:17:35.421Z,20.92
2022-08-17T19:20:11.673Z,21.83
2022-08-17T19:22:54.529Z,21.90
2022-08-17T19:25:30.351Z,23.27
2022-08-17T19:28:05.204Z,21.08
2022-08-17T19:30:51.145Z,20.52
2022-08-17T19:33:19.472Z,21.45
2022-08-17T19:36:06.346Z,22.25
2022-08-17T19:38:54.104Z,23.92
2022-08-17T19:41:28.212Z,23.58
2022-08-17T19:44:15.448Z,22.70
2022-08-17T19:46:55.986Z,24.30
2022-08-17T19:49:41.130Z,21.48
2022-08-17T19:52:24.151Z,21.33
2022-08-17T19:54:58.939Z,20.73
2022-08-17T19:57:38.135Z,20.75
2022-08-17T20:00:12.662Z,17.30
2022-08-17T20:02:50.511Z,19.60
2022-08-17T20:05:22.603Z,18.05
2022-08-17T20:10:36.504Z,19.55
2022-08-17T20:13:09.533Z,17.63
2022-08-17T20:15:42.349Z,17.38
2022-08-17T20:18:19.011Z,17.50
2022-08-17T20:20:55.908Z,19.20
2022-08-17T20:23:34.750Z,19.38
2022-08-17T20:26:13.815Z,16.88
2022-08-17T20:29:37.485Z,19.10
2022-08-17T20:32:23.536Z,16.67
2022-08-17T20:35:04.296Z,21.52
2022-08-17T20:37:44.810Z,18.45
2022-08-17T20:40:21.243Z,21.45
2022-08-17T20:42:49.612Z,20.90
2022-08-17T20:45:51.708Z,20.13
2022-08-17T20:48:37.946Z,16.48
2022-08-17T20:51:27.270Z,22.08
2022-08-17T20:54:35.614Z,19.25
2022-08-17T20:57:06.755Z,23.73
2022-08-17T20:59:59.756Z,19.73
2022-08-17T21:02:29.647Z,21.92
2022-08-17T21:05:30.808Z,27.00
2022-08-17T21:08:02.301Z,28.17
2022-08-17T21:10:38.779Z,24.73
2022-08-17T21:13:40.301Z,24.55
2022-08-17T21:16:25.701Z,21.00
2022-08-17T21:19:08.638Z,22.73
2022-08-17T21:21:47.919Z,21.13
2022-08-17T21:24:27.299Z,23.73
2022-08-17T21:27:03.606Z,23.60
2022-08-17T21:29:34.063Z,19.98
2022-08-17T21:32:19.063Z,23.75
2022-08-17T21:35:24.331Z,22.08
2022-08-17T21:37:58.519Z,22.15
2022-08-17T21:40:29.414Z,23.27
2022-08-17T21:43:01.312Z,24.50
2022-08-17T21:45:35.084Z,20.85
2022-08-17T21:48:15.108Z,26.08
2022-08-17T21:50:47.511Z,22.25
2022-08-17T21:53:33.055Z,21.25
2022-08-17T21:56:01.942Z,19.88
2022-08-17T21:58:33.459Z,20.55
2022-08-17T22:01:19.298Z,20.70
2022-08-17T22:03:54.490Z,21.90
2022-08-17T22:06:26.549Z,20.48
2022-08-17T22:11:53.285Z,23.60
2022-08-17T22:14:23.225Z,23.00
2022-08-17T22:17:07.324Z,22.05
2022-08-17T22:19:36.873Z,25.10
2022-08-17T22:22:06.792Z,20.77
2022-08-17T22:24:36.795Z,18.60
2022-08-17T22:27:09.252Z,20.20
2022-08-17T22:29:57.434Z,18.70
2022-08-17T22:32:42.030Z,20.67
2022-08-17T22:35:26.306Z,19.63
2022-08-17T22:37:54.291Z,18.90
2022-08-17T22:40:29.032Z,20.73
2022-08-17T22:42:58.266Z,21.95
2022-08-17T22:45:26.746Z,22.25
2022-08-17T22:47:56.836Z,20.10
2022-08-17T22:50:27.899Z,21.08
2022-08-17T22:53:18.324Z,21.35
2022-08-17T22:56:11.011Z,18.92
2022-08-17T22:59:02.182Z,19.98
2022-08-17T23:01:32.487Z,19.55
2022-08-17T23:04:03.073Z,18.25
2022-08-17T23:06:33.858Z,16.77
2022-08-17T23:09:03.886Z,19.60
2022-08-17T23:11:46.205Z,17.00
2022-08-17T23:14:19.843Z,21.38
2022-08-17T23:16:48.722Z,19.00
2022-08-17T23:19:18.623Z,19.25
2022-08-17T23:21:46.942Z,19.20
2022-08-17T23:24:19.468Z,20.08
2022-08-17T23:26:48.852Z,18.33
2022-08-17T23:29:16.952Z,18.73
2022-08-17T23:31:44.983Z,17.52
2022-08-17T23:34:18.319Z,19.42
2022-08-17T23:36:52.604Z,16.77
2022-08-17T23:39:27.575Z,18.83
2022-08-17T23:41:58.376Z,16.02
2022-08-17T23:44:27.346Z,18.23
2022-08-17T23:46:55.775Z,16.83
2022-08-17T23:49:24.372Z,17.73
2022-08-17T23:51:53.643Z,17.95
2022-08-17T23:54:24.247Z,17.30
2022-08-17T23:56:52.870Z,17.58
2022-08-17T23:59:23.660Z,18.52
